Time,TemperatureF,DewpointF,PressureIn,WindDirection,WindDirectionDegrees,WindSpeedMPH,WindSpeedGustMPH,Humidity,HourlyPrecipIn,Conditions,Clouds,dailyrainin,SoftwareType,DateUTC
2013-03-03 00:00:00,34.2,27.1,29.59,NW,325,0.0,1.0,75,0.00,,---,0.00,VWS V14.01,2013-03-03 05:00:00,
2013-03-03 00:01:00,34.2,27.1,29.59,NW,326,0.0,1.0,75,0.00,,---,0.00,VWS V14.01,2013-03-03 05:01:00,
2013-03-03 00:04:00,34.2,27.1,29.60,NW,325,0.0,1.0,75,0.00,,---,0.00,VWS V14.01,2013-03-03 05:04:00,
2013-03-03 00:05:00,34.2,27.1,29.60,NW,325,0.0,1.0,75,0.00,,---,0.00,VWS V14.01,2013-03-03 05:05:00,
2013-03-03 00:10:00,34.1,27.0,29.60,WNW,294,0.0,1.0,75,0.00,,---,0.00,VWS V14.01,2013-03-03 05:10:00,
2013-03-03 00:15:00,34.0,26.6,29.59,North,355,1.0,4.0,74,0.00,,---,0.00,VWS V14.01,2013-03-03 05:15:00,
2013-03-03 00:20:00,33.9,26.5,29.59,NW,313,1.0,4.0,74,0.00,,---,0.00,VWS V14.01,2013-03-03 05:20:00,
2013-03-03 00:25:00,33.9,26.5,29.60,NW,318,2.0,3.0,74,0.00,,---,0.00,VWS V14.01,2013-03-03 05:25:00,
2013-03-03 00:30:00,33.8,26.4,29.60,WNW,284,0.0,7.0,74,0.00,,---,0.00,VWS V14.01,2013-03-03 05:30:00,
2013-03-03 00:35:00,33.8,26.7,29.60,NW,310,0.0,3.0,75,0.00,,---,0.00,VWS V14.01,2013-03-03 05:35:00,
2013-03-03 00:40:00,33.7,26.6,29.60,West,279,0.0,4.0,75,0.00,,---,0.00,VWS V14.01,2013-03-03 05:40:00,
2013-03-03 00:45:00,33.7,26.6,29.59,NNW,336,2.0,5.0,75,0.00,,---,0.00,VWS V14.01,2013-03-03 05:45:00,
2013-03-03 00:50:00,33.6,26.5,29.60,WNW,293,0.0,5.0,75,0.00,,---,0.00,VWS V14.01,2013-03-03 05:50:00,
2013-03-03 00:55:00,33.2,27.1,29.59,WNW,298,0.0,4.0,78,0.00,,---,0.00,VWS V14.01,2013-03-03 05:55:00,
2013-03-03 00:56:00,33.5,26.4,29.59,WNW,302,2.0,2.0,75,0.00,,---,0.00,VWS V14.01,2013-03-03 05:56:00,
2013-03-03 01:00:00,33.2,26.8,29.59,North,355,0.0,5.0,77,0.00,,---,0.00,VWS V14.01,2013-03-03 06:00:00,
2013-03-03 01:01:00,33.5,26.4,29.60,WNW,293,3.0,4.0,75,0.00,,---,0.00,VWS V14.01,2013-03-03 06:01:00,
2013-03-03 01:05:00,33.2,27.1,29.59,North,360,0.0,3.0,78,0.00,,---,0.00,VWS V14.01,2013-03-03 06:05:00,
2013-03-03 01:06:00,33.4,26.7,29.60,NW,306,0.0,1.0,76,0.00,,---,0.00,VWS V14.01,2013-03-03 06:06:00,
2013-03-03 01:10:00,33.1,27.0,29.59,North,350,0.0,4.0,78,0.00,,---,0.00,VWS V14.01,2013-03-03 06:10:00,
2013-03-03 01:11:00,33.4,26.3,29.60,WNW,299,2.0,5.0,75,0.00,,---,0.00,VWS V14.01,2013-03-03 06:11:00,
2013-03-03 01:15:00,33.1,27.0,29.58,WNW,288,4.0,7.0,78,0.00,,---,0.00,VWS V14.01,2013-03-03 06:15:00,
2013-03-03 01:16:00,33.4,27.0,29.60,NW,321,0.0,3.0,77,0.00,,---,0.00,VWS V14.01,2013-03-03 06:16:00,
2013-03-03 01:20:00,33.0,26.9,29.58,WNW,285,1.0,5.0,78,0.00,,---,0.00,VWS V14.01,2013-03-03 06:20:00,
2013-03-03 01:21:00,33.3,26.6,29.59,NNW,329,3.0,6.0,76,0.00,,---,0.00,VWS V14.01,2013-03-03 06:21:00,
2013-03-03 01:25:00,33.0,26.9,29.58,West,265,0.0,4.0,78,0.00,,---,0.00,VWS V14.01,2013-03-03 06:25:00,
2013-03-03 01:26:00,33.3,26.9,29.59,West,267,1.0,5.0,77,0.00,,---,0.00,VWS V14.01,2013-03-03 06:26:00,
2013-03-03 01:30:00,33.0,26.9,29.58,West,273,0.0,2.0,78,0.00,,---,0.00,VWS V14.01,2013-03-03 06:30:00,
2013-03-03 01:31:00,33.3,26.9,29.59,NW,318,2.0,4.0,77,0.00,,---,0.00,VWS V14.01,2013-03-03 06:31:00,
2013-03-03 01:35:00,33.0,26.9,29.58,North,360,0.0,3.0,78,0.00,,---,0.00,VWS V14.01,2013-03-03 06:35:00,
2013-03-03 01:36:00,33.3,26.9,29.59,NW,321,0.0,2.0,77,0.00,,---,0.00,VWS V14.01,2013-03-03 06:36:00,
2013-03-03 01:40:00,32.9,26.8,29.58,NNW,348,0.0,9.0,78,0.00,,---,0.00,VWS V14.01,2013-03-03 06:40:00,
2013-03-03 01:41:00,33.2,26.8,29.59,NW,313,0.0,2.0,77,0.00,,---,0.00,VWS V14.01,2013-03-03 06:41:00,
2013-03-03 01:45:00,32.9,26.8,29.58,North,349,0.0,4.0,78,0.00,,---,0.00,VWS V14.01,2013-03-03 06:45:00,
2013-03-03 01:46:00,33.2,27.1,29.59,West,265,5.0,5.0,78,0.00,,---,0.00,VWS V14.01,2013-03-03 06:46:00,
2013-03-03 01:50:00,32.9,26.8,29.58,West,273,2.0,3.0,78,0.00,,---,0.00,VWS V14.01,2013-03-03 06:50:00,
2013-03-03 01:51:00,33.2,26.8,29.59,NW,325,0.0,3.0,77,0.00,,---,0.00,VWS V14.01,2013-03-03 06:51:00,
2013-03-03 01:55:00,32.9,26.8,29.58,North,5,2.0,3.0,78,0.00,,---,0.00,VWS V14.01,2013-03-03 06:55:00,
2013-03-03 01:56:00,33.2,26.8,29.59,WNW,291,4.0,4.0,77,0.00,,---,0.00,VWS V14.01,2013-03-03 06:56:00,
2013-03-03 02:00:00,32.9,26.8,29.58,WNW,294,2.0,4.0,78,0.00,,---,0.00,VWS V14.01,2013-03-03 07:00:00,
2013-03-03 02:01:00,33.2,27.1,29.59,North,5,2.0,2.0,78,0.00,,---,0.00,VWS V14.01,2013-03-03 07:01:00,
2013-03-03 02:05:00,32.9,26.8,29.58,NW,324,0.0,4.0,78,0.00,,---,0.00,VWS V14.01,2013-03-03 07:05:00,
2013-03-03 02:06:00,33.1,27.0,29.59,NW,317,3.0,4.0,78,0.00,,---,0.00,VWS V14.01,2013-03-03 07:06:00,
2013-03-03 02:10:00,32.9,26.8,29.58,NW,310,0.0,2.0,78,0.00,,---,0.00,VWS V14.01,2013-03-03 07:10:00,
2013-03-03 02:11:00,33.1,27.0,29.58,WSW,250,0.0,7.0,78,0.00,,---,0.00,VWS V14.01,2013-03-03 07:11:00,
2013-03-03 02:15:00,32.9,26.8,29.58,NW,315,4.0,5.0,78,0.00,,---,0.00,VWS V14.01,2013-03-03 07:15:00,
2013-03-03 02:16:00,33.0,26.9,29.58,WNW,285,0.0,5.0,78,0.00,,---,0.00,VWS V14.01,2013-03-03 07:16:00,
2013-03-03 02:20:00,32.9,26.8,29.58,West,259,2.0,12.0,78,0.00,,---,0.00,VWS V14.01,2013-03-03 07:20:00,
2013-03-03 02:21:00,33.0,26.9,29.58,West,265,0.0,4.0,78,0.00,,---,0.00,VWS V14.01,2013-03-03 07:21:00,
2013-03-03 02:25:00,32.9,26.8,29.58,SSW,192,1.0,5.0,78,0.00,,---,0.00,VWS V14.01,2013-03-03 07:25:00,
2013-03-03 02:26:00,33.0,26.9,29.58,West,269,0.0,2.0,78,0.00,,---,0.00,VWS V14.01,2013-03-03 07:26:00,
2013-03-03 02:30:00,32.8,26.7,29.58,WNW,290,4.0,6.0,78,0.00,,---,0.00,VWS V14.01,2013-03-03 07:30:00,
2013-03-03 02:31:00,33.0,26.9,29.58,North,5,0.0,3.0,78,0.00,,---,0.00,VWS V14.01,2013-03-03 07:31:00,
2013-03-03 02:35:00,32.8,26.4,29.58,NW,306,0.0,5.0,77,0.00,,---,0.00,VWS V14.01,2013-03-03 07:35:00,
2013-03-03 02:37:00,32.9,26.5,29.58,North,360,0.0,9.0,77,0.00,,---,0.00,VWS V14.01,2013-03-03 07:37:00,
2013-03-03 02:40:00,32.8,26.4,29.57,NNW,346,4.0,6.0,77,0.00,,---,0.00,VWS V14.01,2013-03-03 07:40:00,
2013-03-03 02:42:00,32.9,26.8,29.58,North,5,2.0,4.0,78,0.00,,---,0.00,VWS V14.01,2013-03-03 07:42:00,
2013-03-03 02:45:00,32.8,26.4,29.58,WNW,284,1.0,7.0,77,0.00,,---,0.00,VWS V14.01,2013-03-03 07:45:00,
2013-03-03 02:47:00,32.9,26.8,29.58,North,349,0.0,0.0,78,0.00,,---,0.00,VWS V14.01,2013-03-03 07:47:00,
2013-03-03 02:50:00,32.8,26.4,29.57,WNW,287,0.0,5.0,77,0.00,,---,0.00,VWS V14.01,2013-03-03 07:50:00,
2013-03-03 02:52:00,32.9,26.8,29.58,West,275,0.0,3.0,78,0.00,,---,0.00,VWS V14.01,2013-03-03 07:52:00,
2013-03-03 02:55:00,32.8,26.7,29.58,WNW,293,1.0,2.0,78,0.00,,---,0.00,VWS V14.01,2013-03-03 07:55:00,
2013-03-03 02:57:00,32.9,26.8,29.58,West,277,0.0,4.0,78,0.00,,---,0.00,VWS V14.01,2013-03-03 07:57:00,
2013-03-03 03:00:00,32.8,26.7,29.58,WNW,301,1.0,4.0,78,0.00,,---,0.00,VWS V14.01,2013-03-03 08:00:00,
2013-03-03 03:02:00,32.9,26.8,29.58,West,275,1.0,4.0,78,0.00,,---,0.00,VWS V14.01,2013-03-03 08:02:00,
2013-03-03 03:05:00,32.8,26.4,29.58,WNW,292,0.0,3.0,77,0.00,,---,0.00,VWS V14.01,2013-03-03 08:05:00,
2013-03-03 03:07:00,32.9,26.8,29.58,NW,309,0.0,2.0,78,0.00,,---,0.00,VWS V14.01,2013-03-03 08:07:00,
2013-03-03 03:10:00,32.7,26.6,29.58,WNW,294,2.0,3.0,78,0.00,,---,0.00,VWS V14.01,2013-03-03 08:10:00,
2013-03-03 03:12:00,32.9,26.8,29.58,WNW,292,0.0,3.0,78,0.00,,---,0.00,VWS V14.01,2013-03-03 08:12:00,
2013-03-03 03:15:00,32.7,26.3,29.58,NW,326,1.0,5.0,77,0.00,,---,0.00,VWS V14.01,2013-03-03 08:15:00,
2013-03-03 03:17:00,32.9,26.8,29.58,NNW,336,0.0,12.0,78,0.00,,---,0.00,VWS V14.01,2013-03-03 08:17:00,
2013-03-03 03:20:00,32.7,26.3,29.58,West,263,0.0,4.0,77,0.00,,---,0.00,VWS V14.01,2013-03-03 08:20:00,
2013-03-03 03:22:00,32.9,26.8,29.58,NW,306,3.0,5.0,78,0.00,,---,0.00,VWS V14.01,2013-03-03 08:22:00,
2013-03-03 03:25:00,32.7,26.3,29.58,West,277,0.0,7.0,77,0.00,,---,0.00,VWS V14.01,2013-03-03 08:25:00,
2013-03-03 03:27:00,32.8,26.7,29.58,West,267,0.0,6.0,78,0.00,,---,0.00,VWS V14.01,2013-03-03 08:27:00,
2013-03-03 03:30:00,32.7,26.3,29.58,WNW,298,0.0,10.0,77,0.00,,---,0.00,VWS V14.01,2013-03-03 08:30:00,
2013-03-03 03:32:00,32.8,26.7,29.58,NW,306,0.0,5.0,78,0.00,,---,0.00,VWS V14.01,2013-03-03 08:32:00,
2013-03-03 03:35:00,32.7,26.3,29.58,NNW,336,2.0,4.0,77,0.00,,---,0.00,VWS V14.01,2013-03-03 08:35:00,
2013-03-03 03:37:00,32.8,26.4,29.57,West,269,0.0,6.0,77,0.00,,---,0.00,VWS V14.01,2013-03-03 08:37:00,
2013-03-03 03:40:00,32.7,26.3,29.58,NW,320,0.0,7.0,77,0.00,,---,0.00,VWS V14.01,2013-03-03 08:40:00,
2013-03-03 03:42:00,32.8,26.4,29.58,WNW,284,0.0,7.0,77,0.00,,---,0.00,VWS V14.01,2013-03-03 08:42:00,
2013-03-03 03:45:00,32.7,26.3,29.58,West,262,0.0,3.0,77,0.00,,---,0.00,VWS V14.01,2013-03-03 08:45:00,
2013-03-03 03:47:00,32.8,26.4,29.57,WNW,287,2.0,5.0,77,0.00,,---,0.00,VWS V14.01,2013-03-03 08:47:00,
2013-03-03 03:50:00,32.6,26.5,29.58,WNW,297,1.0,6.0,78,0.00,,---,0.00,VWS V14.01,2013-03-03 08:50:00,
2013-03-03 03:52:00,32.8,26.7,29.58,WNW,294,1.0,1.0,78,0.00,,---,0.00,VWS V14.01,2013-03-03 08:52:00,
2013-03-03 03:55:00,32.6,26.5,29.58,WNW,299,0.0,6.0,78,0.00,,---,0.00,VWS V14.01,2013-03-03 08:55:00,
2013-03-03 03:57:00,32.8,26.7,29.58,WNW,301,0.0,4.0,78,0.00,,---,0.00,VWS V14.01,2013-03-03 08:57:00,
2013-03-03 04:00:00,32.6,26.5,29.58,WNW,288,1.0,3.0,78,0.00,,---,0.00,VWS V14.01,2013-03-03 09:00:00,
2013-03-03 04:02:00,32.7,26.3,29.58,WNW,292,0.0,3.0,77,0.00,,---,0.00,VWS V14.01,2013-03-03 09:02:00,
2013-03-03 04:05:00,32.5,26.4,29.58,WNW,295,0.0,11.0,78,0.00,,---,0.00,VWS V14.01,2013-03-03 09:05:00,
2013-03-03 04:07:00,32.8,26.7,29.58,WNW,296,3.0,3.0,78,0.00,,---,0.00,VWS V14.01,2013-03-03 09:07:00,
2013-03-03 04:10:00,32.3,26.5,29.58,NW,314,0.0,5.0,79,0.00,,---,0.00,VWS V14.01,2013-03-03 09:10:00,
2013-03-03 04:12:00,32.7,26.3,29.58,WNW,290,3.0,5.0,77,0.00,,---,0.00,VWS V14.01,2013-03-03 09:12:00,
2013-03-03 04:15:00,32.2,26.4,29.58,WNW,294,0.0,3.0,79,0.00,,---,0.00,VWS V14.01,2013-03-03 09:15:00,
2013-03-03 04:18:00,32.7,26.3,29.58,West,263,0.0,4.0,77,0.00,,---,0.00,VWS V14.01,2013-03-03 09:18:00,
2013-03-03 04:20:00,32.2,26.7,29.58,NW,311,4.0,7.0,80,0.00,,---,0.00,VWS V14.01,2013-03-03 09:20:00,
2013-03-03 04:23:00,32.7,26.3,29.58,West,277,0.0,7.0,77,0.00,,---,0.00,VWS V14.01,2013-03-03 09:23:00,
2013-03-03 04:25:00,32.1,26.6,29.58,West,271,3.0,5.0,80,0.00,,---,0.00,VWS V14.01,2013-03-03 09:25:00,
2013-03-03 04:28:00,32.7,26.3,29.58,WNW,298,0.0,10.0,77,0.00,,---,0.00,VWS V14.01,2013-03-03 09:28:00,
2013-03-03 04:30:00,32.1,26.9,29.58,NW,321,0.0,3.0,81,0.00,,---,0.00,VWS V14.01,2013-03-03 09:30:00,
2013-03-03 04:33:00,32.7,26.3,29.58,NNW,336,2.0,4.0,77,0.00,,---,0.00,VWS V14.01,2013-03-03 09:33:00,
2013-03-03 04:35:00,32.0,26.8,29.58,WNW,290,3.0,4.0,81,0.00,,---,0.00,VWS V14.01,2013-03-03 09:35:00,
2013-03-03 04:38:00,32.7,26.3,29.58,NW,320,0.0,7.0,77,0.00,,---,0.00,VWS V14.01,2013-03-03 09:38:00,
2013-03-03 04:40:00,31.9,26.7,29.58,WNW,285,2.0,4.0,81,0.00,,---,0.00,VWS V14.01,2013-03-03 09:40:00,
2013-03-03 04:43:00,32.7,26.3,29.58,West,262,0.0,3.0,77,0.00,,---,0.00,VWS V14.01,2013-03-03 09:43:00,
2013-03-03 04:45:00,31.8,26.9,29.58,West,268,0.0,3.0,82,0.00,,---,0.00,VWS V14.01,2013-03-03 09:45:00,
2013-03-03 04:48:00,32.6,26.5,29.58,WNW,297,1.0,6.0,78,0.00,,---,0.00,VWS V14.01,2013-03-03 09:48:00,
2013-03-03 04:50:00,31.7,27.1,29.58,NNW,330,0.0,4.0,83,0.00,,---,0.00,VWS V14.01,2013-03-03 09:50:00,
2013-03-03 04:53:00,32.6,26.5,29.58,WNW,299,0.0,6.0,78,0.00,,---,0.00,VWS V14.01,2013-03-03 09:53:00,
2013-03-03 04:55:00,31.6,27.0,29.58,NNW,344,1.0,3.0,83,0.00,,---,0.00,VWS V14.01,2013-03-03 09:55:00,
2013-03-03 04:58:00,32.6,26.5,29.58,WNW,288,1.0,3.0,78,0.00,,---,0.00,VWS V14.01,2013-03-03 09:58:00,
2013-03-03 05:00:00,31.6,27.0,29.59,WNW,287,0.0,4.0,83,0.00,,---,0.00,VWS V14.01,2013-03-03 10:00:00,
2013-03-03 05:03:00,32.5,26.4,29.58,WNW,295,0.0,11.0,78,0.00,,---,0.00,VWS V14.01,2013-03-03 10:03:00,
2013-03-03 05:05:00,31.5,27.2,29.58,NNW,342,0.0,6.0,84,0.00,,---,0.00,VWS V14.01,2013-03-03 10:05:00,
2013-03-03 05:08:00,32.3,26.5,29.58,NW,313,2.0,2.0,79,0.00,,---,0.00,VWS V14.01,2013-03-03 10:08:00,
2013-03-03 05:10:00,31.5,27.2,29.58,NW,305,0.0,2.0,84,0.00,,---,0.00,VWS V14.01,2013-03-03 10:10:00,
2013-03-03 05:13:00,32.3,26.5,29.58,WNW,294,0.0,1.0,79,0.00,,---,0.00,VWS V14.01,2013-03-03 10:13:00,
2013-03-03 05:15:00,31.5,27.2,29.58,NW,304,2.0,2.0,84,0.00,,---,0.00,VWS V14.01,2013-03-03 10:15:00,
2013-03-03 05:18:00,32.2,26.7,29.58,WNW,299,2.0,5.0,80,0.00,,---,0.00,VWS V14.01,2013-03-03 10:18:00,
2013-03-03 05:20:00,31.4,27.1,29.58,West,259,0.0,4.0,84,0.00,,---,0.00,VWS V14.01,2013-03-03 10:20:00,
2013-03-03 05:24:00,32.1,26.9,29.58,NW,324,1.0,3.0,81,0.00,,---,0.00,VWS V14.01,2013-03-03 10:24:00,
2013-03-03 05:25:00,31.4,27.1,29.58,West,259,0.0,3.0,84,0.00,,---,0.00,VWS V14.01,2013-03-03 10:25:00,
2013-03-03 05:29:00,32.0,26.8,29.58,NW,321,0.0,0.0,81,0.00,,---,0.00,VWS V14.01,2013-03-03 10:29:00,
2013-03-03 05:30:00,31.3,27.3,29.58,NW,318,1.0,4.0,85,0.00,,---,0.00,VWS V14.01,2013-03-03 10:30:00,
2013-03-03 05:34:00,32.0,26.8,29.58,WSW,254,3.0,3.0,81,0.00,,---,0.00,VWS V14.01,2013-03-03 10:34:00,
2013-03-03 05:35:00,31.3,27.3,29.59,WNW,289,2.0,4.0,85,0.00,,---,0.00,VWS V14.01,2013-03-03 10:35:00,
2013-03-03 05:39:00,31.9,27.0,29.58,WNW,287,0.0,3.0,82,0.00,,---,0.00,VWS V14.01,2013-03-03 10:39:00,
2013-03-03 05:40:00,31.3,27.3,29.59,WNW,290,0.0,6.0,85,0.00,,---,0.00,VWS V14.01,2013-03-03 10:40:00,
2013-03-03 05:44:00,31.8,26.9,29.58,West,266,2.0,2.0,82,0.00,,---,0.00,VWS V14.01,2013-03-03 10:44:00,
2013-03-03 05:45:00,31.3,27.3,29.59,West,263,2.0,4.0,85,0.00,,---,0.00,VWS V14.01,2013-03-03 10:45:00,
2013-03-03 05:49:00,31.7,27.1,29.58,NNW,329,0.0,1.0,83,0.00,,---,0.00,VWS V14.01,2013-03-03 10:49:00,
2013-03-03 05:50:00,31.3,27.3,29.59,WNW,303,0.0,3.0,85,0.00,,---,0.00,VWS V14.01,2013-03-03 10:50:00,
2013-03-03 05:54:00,31.6,27.0,29.58,NNW,344,1.0,1.0,83,0.00,,---,0.00,VWS V14.01,2013-03-03 10:54:00,
2013-03-03 05:55:00,31.3,27.3,29.59,WNW,284,0.0,1.0,85,0.00,,---,0.00,VWS V14.01,2013-03-03 10:55:00,
2013-03-03 05:59:00,31.6,27.0,29.59,WNW,287,1.0,2.0,83,0.00,,---,0.00,VWS V14.01,2013-03-03 10:59:00,
2013-03-03 06:00:00,31.3,27.3,29.59,WNW,284,0.0,1.0,85,0.00,,---,0.00,VWS V14.01,2013-03-03 11:00:00,
2013-03-03 06:04:00,31.5,27.2,29.58,NNW,343,0.0,1.0,84,0.00,,---,0.00,VWS V14.01,2013-03-03 11:04:00,
2013-03-03 06:05:00,31.4,27.1,29.59,WSW,254,0.0,2.0,84,0.00,,---,0.00,VWS V14.01,2013-03-03 11:05:00,
2013-03-03 06:09:00,31.5,27.2,29.58,NW,305,0.0,0.0,84,0.00,,---,0.00,VWS V14.01,2013-03-03 11:09:00,
2013-03-03 06:10:00,31.4,27.4,29.59,West,274,0.0,6.0,85,0.00,,---,0.00,VWS V14.01,2013-03-03 11:10:00,
2013-03-03 06:14:00,31.4,27.1,29.58,West,259,0.0,4.0,84,0.00,,---,0.00,VWS V14.01,2013-03-03 11:14:00,
2013-03-03 06:15:00,31.5,27.5,29.59,West,274,0.0,2.0,85,0.00,,---,0.00,VWS V14.01,2013-03-03 11:15:00,
2013-03-03 06:19:00,31.4,27.1,29.58,West,259,0.0,1.0,84,0.00,,---,0.00,VWS V14.01,2013-03-03 11:19:00,
2013-03-03 06:20:00,31.5,27.5,29.60,WNW,294,0.0,7.0,85,0.00,,---,0.00,VWS V14.01,2013-03-03 11:20:00,
2013-03-03 06:24:00,31.4,27.1,29.58,West,259,0.0,1.0,84,0.00,,---,0.00,VWS V14.01,2013-03-03 11:24:00,
2013-03-03 06:25:00,31.5,27.5,29.60,WNW,292,0.0,3.0,85,0.00,,---,0.00,VWS V14.01,2013-03-03 11:25:00,
2013-03-03 06:30:00,31.4,27.4,29.58,NW,317,0.0,2.0,85,0.00,,---,0.00,VWS V14.01,2013-03-03 11:30:00,
2013-03-03 06:35:00,31.3,27.3,29.59,WNW,294,0.0,5.0,85,0.00,,---,0.00,VWS V14.01,2013-03-03 11:35:00,
2013-03-03 06:40:00,31.3,27.3,29.59,WNW,290,0.0,1.0,85,0.00,,---,0.00,VWS V14.01,2013-03-03 11:40:00,
2013-03-03 06:45:00,31.3,27.3,29.59,NW,306,0.0,3.0,85,0.00,,---,0.00,VWS V14.01,2013-03-03 11:45:00,
2013-03-03 06:50:00,31.3,27.3,29.59,WNW,289,0.0,1.0,85,0.00,,---,0.00,VWS V14.01,2013-03-03 11:50:00,
2013-03-03 06:55:00,31.3,27.3,29.59,WNW,284,0.0,0.0,85,0.00,,---,0.00,VWS V14.01,2013-03-03 11:55:00,
2013-03-03 07:00:00,31.4,27.4,29.59,WSW,254,0.0,2.0,85,0.00,,---,0.00,VWS V14.01,2013-03-03 12:00:00,
2013-03-03 07:05:00,31.4,27.1,29.59,WNW,285,4.0,6.0,84,0.00,,---,0.00,VWS V14.01,2013-03-03 12:05:00,
2013-03-03 07:10:00,31.5,27.5,29.59,West,274,0.0,0.0,85,0.00,,---,0.00,VWS V14.01,2013-03-03 12:10:00,
2013-03-03 07:15:00,31.5,27.5,29.59,WNW,303,1.0,5.0,85,0.00,,---,0.00,VWS V14.01,2013-03-03 12:15:00,
2013-03-03 07:20:00,31.5,27.5,29.59,West,278,0.0,3.0,85,0.00,,---,0.00,VWS V14.01,2013-03-03 12:20:00,
2013-03-03 07:25:00,31.5,27.2,29.59,WNW,292,0.0,0.0,84,0.00,,---,0.00,VWS V14.01,2013-03-03 12:25:00,
2013-03-03 07:30:00,31.6,27.3,29.60,WNW,289,0.0,2.0,84,0.00,,---,0.00,VWS V14.01,2013-03-03 12:30:00,
2013-03-03 07:35:00,31.6,27.3,29.60,WNW,297,0.0,3.0,84,0.00,,---,0.00,VWS V14.01,2013-03-03 12:35:00,
2013-03-03 07:40:00,31.7,27.4,29.60,WNW,286,4.0,5.0,84,0.00,,---,0.00,VWS V14.01,2013-03-03 12:40:00,
2013-03-03 07:45:00,31.7,27.4,29.60,NNE,13,1.0,6.0,84,0.00,,---,0.00,VWS V14.01,2013-03-03 12:45:00,
2013-03-03 07:50:00,31.7,27.4,29.60,West,280,0.0,3.0,84,0.00,,---,0.00,VWS V14.01,2013-03-03 12:50:00,
2013-03-03 07:55:00,31.7,27.4,29.59,West,279,1.0,4.0,84,0.00,,---,0.00,VWS V14.01,2013-03-03 12:55:00,
2013-03-03 08:00:00,32.5,28.5,29.59,NE,53,1.0,5.0,85,0.00,,---,0.00,VWS V14.01,2013-03-03 13:00:00,
2013-03-03 08:01:00,31.7,27.7,29.59,West,279,0.0,2.0,85,0.00,,---,0.00,VWS V14.01,2013-03-03 13:01:00,
2013-03-03 08:05:00,32.7,28.7,29.59,NNW,330,1.0,4.0,85,0.00,,---,0.00,VWS V14.01,2013-03-03 13:05:00,
2013-03-03 08:06:00,31.7,27.7,29.59,WNW,296,2.0,6.0,85,0.00,,---,0.00,VWS V14.01,2013-03-03 13:06:00,
2013-03-03 08:10:00,32.7,28.7,29.59,NW,321,1.0,9.0,85,0.00,,---,0.00,VWS V14.01,2013-03-03 13:10:00,
2013-03-03 08:11:00,31.7,28.0,29.59,West,275,5.0,5.0,86,0.00,,---,0.00,VWS V14.01,2013-03-03 13:11:00,
2013-03-03 08:15:00,32.8,28.5,29.59,NW,316,5.0,7.0,84,0.00,,---,0.00,VWS V14.01,2013-03-03 13:15:00,
2013-03-03 08:16:00,31.7,28.0,29.59,WNW,290,1.0,5.0,86,0.00,,---,0.00,VWS V14.01,2013-03-03 13:16:00,
2013-03-03 08:20:00,32.8,28.5,29.59,NW,321,1.0,5.0,84,0.00,,---,0.00,VWS V14.01,2013-03-03 13:20:00,
2013-03-03 08:21:00,31.8,28.4,29.59,WNW,299,0.0,4.0,87,0.00,,---,0.00,VWS V14.01,2013-03-03 13:21:00,
2013-03-03 08:25:00,32.8,28.8,29.59,NNW,348,1.0,3.0,85,0.00,,---,0.00,VWS V14.01,2013-03-03 13:25:00,
2013-03-03 08:26:00,32.0,28.6,29.59,WNW,300,0.0,4.0,87,0.00,,---,0.00,VWS V14.01,2013-03-03 13:26:00,
2013-03-03 08:30:00,32.9,28.9,29.59,SW,232,0.0,5.0,85,0.00,,---,0.00,VWS V14.01,2013-03-03 13:30:00,
2013-03-03 08:31:00,32.0,28.3,29.59,NW,325,0.0,11.0,86,0.00,,---,0.00,VWS V14.01,2013-03-03 13:31:00,
2013-03-03 08:35:00,33.0,29.0,29.58,NNW,343,0.0,3.0,85,0.00,,---,0.00,VWS V14.01,2013-03-03 13:35:00,
2013-03-03 08:36:00,32.1,28.4,29.59,NNW,334,2.0,5.0,86,0.00,,---,0.00,VWS V14.01,2013-03-03 13:36:00,
2013-03-03 08:40:00,33.0,29.0,29.58,NNW,343,0.0,2.0,85,0.00,,---,0.00,VWS V14.01,2013-03-03 13:40:00,
2013-03-03 08:41:00,32.2,28.5,29.59,NNW,329,1.0,3.0,86,0.00,,---,0.00,VWS V14.01,2013-03-03 13:41:00,
2013-03-03 08:45:00,33.1,29.4,29.58,WSW,240,2.0,4.0,86,0.00,,---,0.00,VWS V14.01,2013-03-03 13:45:00,
2013-03-03 08:46:00,32.3,28.6,29.59,WNW,282,3.0,7.0,86,0.00,,---,0.00,VWS V14.01,2013-03-03 13:46:00,
2013-03-03 08:50:00,33.0,29.3,29.58,West,267,1.0,4.0,86,0.00,,---,0.00,VWS V14.01,2013-03-03 13:50:00,
2013-03-03 08:51:00,32.4,28.4,29.59,NW,319,1.0,6.0,85,0.00,,---,0.00,VWS V14.01,2013-03-03 13:51:00,
2013-03-03 08:55:00,33.1,31.0,29.58,WNW,290,2.0,4.0,92,0.00,,---,0.00,VWS V14.01,2013-03-03 13:55:00,
2013-03-03 08:56:00,32.5,28.5,29.59,WNW,285,2.0,5.0,85,0.00,,---,0.00,VWS V14.01,2013-03-03 13:56:00,
2013-03-03 09:00:00,33.3,29.6,29.58,WSW,248,3.0,7.0,86,0.01,,---,0.01,VWS V14.01,2013-03-03 14:00:00,
2013-03-03 09:01:00,32.6,28.6,29.59,SW,229,2.0,3.0,85,0.00,,---,0.00,VWS V14.01,2013-03-03 14:01:00,
2013-03-03 09:05:00,33.4,29.7,29.58,NW,315,0.0,5.0,86,0.01,,---,0.01,VWS V14.01,2013-03-03 14:05:00,
2013-03-03 09:06:00,32.7,28.7,29.59,WNW,302,1.0,9.0,85,0.00,,---,0.00,VWS V14.01,2013-03-03 14:06:00,
2013-03-03 09:10:00,33.7,29.7,29.57,NW,304,0.0,4.0,85,0.01,,---,0.01,VWS V14.01,2013-03-03 14:10:00,
2013-03-03 09:11:00,32.8,28.8,29.59,WSW,254,5.0,5.0,85,0.00,,---,0.00,VWS V14.01,2013-03-03 14:11:00,
2013-03-03 09:15:00,33.8,29.8,29.57,NNW,348,4.0,7.0,85,0.01,,---,0.01,VWS V14.01,2013-03-03 14:15:00,
2013-03-03 09:16:00,32.8,28.5,29.59,NW,318,2.0,5.0,84,0.00,,---,0.00,VWS V14.01,2013-03-03 14:16:00,
2013-03-03 09:20:00,34.0,30.0,29.57,NW,304,4.0,7.0,85,0.01,,---,0.01,VWS V14.01,2013-03-03 14:20:00,
2013-03-03 09:21:00,32.8,28.8,29.59,NNW,348,0.0,3.0,85,0.00,,---,0.00,VWS V14.01,2013-03-03 14:21:00,
2013-03-03 09:25:00,34.0,29.7,29.57,WSW,247,0.0,7.0,84,0.01,,---,0.01,VWS V14.01,2013-03-03 14:25:00,
2013-03-03 09:26:00,32.9,28.9,29.59,WSW,238,3.0,5.0,85,0.00,,---,0.00,VWS V14.01,2013-03-03 14:26:00,
2013-03-03 09:30:00,34.0,29.7,29.57,NE,38,0.0,4.0,84,0.01,,---,0.01,VWS V14.01,2013-03-03 14:30:00,
2013-03-03 09:32:00,33.0,29.0,29.58,West,267,3.0,3.0,85,0.00,,---,0.00,VWS V14.01,2013-03-03 14:32:00,
2013-03-03 09:35:00,34.1,30.1,29.57,West,277,5.0,5.0,85,0.01,,---,0.01,VWS V14.01,2013-03-03 14:35:00,
2013-03-03 09:37:00,33.0,29.0,29.58,NNW,343,0.0,1.0,85,0.00,,---,0.00,VWS V14.01,2013-03-03 14:37:00,
2013-03-03 09:40:00,34.4,30.1,29.57,NNW,329,1.0,11.0,84,0.01,,---,0.01,VWS V14.01,2013-03-03 14:40:00,
2013-03-03 09:42:00,33.1,29.4,29.58,WNW,283,1.0,3.0,86,0.00,,---,0.00,VWS V14.01,2013-03-03 14:42:00,
2013-03-03 09:45:00,34.4,30.1,29.57,West,266,0.0,4.0,84,0.01,,---,0.01,VWS V14.01,2013-03-03 14:45:00,
2013-03-03 09:47:00,33.0,29.3,29.58,West,267,0.0,4.0,86,0.00,,---,0.00,VWS V14.01,2013-03-03 14:47:00,
2013-03-03 09:50:00,34.6,30.6,29.57,WNW,298,3.0,6.0,85,0.01,,---,0.01,VWS V14.01,2013-03-03 14:50:00,
2013-03-03 09:52:00,33.1,31.0,29.58,NW,314,2.0,4.0,92,0.00,,---,0.00,VWS V14.01,2013-03-03 14:52:00,
2013-03-03 09:55:00,34.7,30.1,29.57,SW,232,3.0,6.0,83,0.01,,---,0.01,VWS V14.01,2013-03-03 14:55:00,
2013-03-03 09:57:00,33.2,29.5,29.58,West,267,5.0,6.0,86,0.01,,---,0.01,VWS V14.01,2013-03-03 14:57:00,
2013-03-03 10:00:00,34.9,30.3,29.57,West,263,3.0,10.0,83,0.01,,---,0.01,VWS V14.01,2013-03-03 15:00:00,
2013-03-03 10:02:00,33.4,29.7,29.58,NW,314,1.0,5.0,86,0.01,,---,0.01,VWS V14.01,2013-03-03 15:02:00,
2013-03-03 10:05:00,35.2,30.6,29.57,WNW,288,0.0,7.0,83,0.00,,---,0.01,VWS V14.01,2013-03-03 15:05:00,
2013-03-03 10:07:00,33.6,29.9,29.58,NW,315,0.0,4.0,86,0.01,,---,0.01,VWS V14.01,2013-03-03 15:07:00,
2013-03-03 10:10:00,35.5,30.9,29.56,WNW,300,1.0,5.0,83,0.00,,---,0.01,VWS V14.01,2013-03-03 15:10:00,
2013-03-03 10:12:00,33.8,29.8,29.57,NW,310,4.0,7.0,85,0.01,,---,0.01,VWS V14.01,2013-03-03 15:12:00,
2013-03-03 10:15:00,35.7,30.8,29.56,NW,323,1.0,7.0,82,0.00,,---,0.01,VWS V14.01,2013-03-03 15:15:00,
2013-03-03 10:17:00,34.0,30.0,29.57,West,261,5.0,7.0,85,0.01,,---,0.01,VWS V14.01,2013-03-03 15:17:00,
2013-03-03 10:20:00,35.9,31.0,29.56,NW,315,4.0,6.0,82,0.00,,---,0.01,VWS V14.01,2013-03-03 15:20:00,
2013-03-03 10:22:00,34.0,29.7,29.57,West,269,3.0,7.0,84,0.01,,---,0.01,VWS V14.01,2013-03-03 15:22:00,
2013-03-03 10:25:00,36.0,30.8,29.56,SSW,197,1.0,7.0,81,0.00,,---,0.01,VWS V14.01,2013-03-03 15:25:00,
2013-03-03 10:27:00,34.0,29.7,29.57,North,10,0.0,4.0,84,0.01,,---,0.01,VWS V14.01,2013-03-03 15:27:00,
2013-03-03 10:30:00,36.4,31.4,29.56,West,274,6.0,6.0,82,0.00,,---,0.01,VWS V14.01,2013-03-03 15:30:00,
2013-03-03 10:32:00,34.1,30.1,29.57,WSW,254,0.0,4.0,85,0.01,,---,0.01,VWS V14.01,2013-03-03 15:32:00,
2013-03-03 10:35:00,36.6,31.0,29.56,NW,309,1.0,11.0,80,0.00,,---,0.01,VWS V14.01,2013-03-03 15:35:00,
2013-03-03 10:37:00,34.4,30.4,29.57,WNW,284,10.0,11.0,85,0.01,,---,0.01,VWS V14.01,2013-03-03 15:37:00,
2013-03-03 10:40:00,36.7,31.4,29.56,West,275,4.0,7.0,81,0.00,,---,0.01,VWS V14.01,2013-03-03 15:40:00,
2013-03-03 10:42:00,34.4,30.1,29.57,WSW,254,1.0,4.0,84,0.01,,---,0.01,VWS V14.01,2013-03-03 15:42:00,
2013-03-03 10:45:00,36.6,31.0,29.56,WNW,301,0.0,5.0,80,0.00,,---,0.01,VWS V14.01,2013-03-03 15:45:00,
2013-03-03 10:47:00,34.5,30.5,29.57,WNW,291,1.0,6.0,85,0.01,,---,0.01,VWS V14.01,2013-03-03 15:47:00,
2013-03-03 10:50:00,37.2,31.6,29.55,WNW,299,2.0,4.0,80,0.00,,---,0.01,VWS V14.01,2013-03-03 15:50:00,
2013-03-03 10:52:00,34.7,30.1,29.57,SSW,204,1.0,5.0,83,0.01,,---,0.01,VWS V14.01,2013-03-03 15:52:00,
2013-03-03 10:55:00,37.5,31.9,29.55,WSW,247,1.0,7.0,80,0.00,,---,0.01,VWS V14.01,2013-03-03 15:55:00,
2013-03-03 10:57:00,34.9,30.3,29.57,WNW,287,3.0,10.0,83,0.01,,---,0.01,VWS V14.01,2013-03-03 15:57:00,
2013-03-03 11:00:00,37.4,31.5,29.55,WNW,287,5.0,12.0,79,0.00,,---,0.01,VWS V14.01,2013-03-03 16:00:00,
2013-03-03 11:02:00,35.2,30.6,29.57,WNW,288,0.0,7.0,83,0.00,,---,0.01,VWS V14.01,2013-03-03 16:02:00,
2013-03-03 11:05:00,37.1,31.5,29.55,WNW,290,1.0,6.0,80,0.00,,---,0.01,VWS V14.01,2013-03-03 16:05:00,
2013-03-03 11:07:00,35.5,30.9,29.56,West,279,4.0,4.0,83,0.00,,---,0.01,VWS V14.01,2013-03-03 16:07:00,
2013-03-03 11:10:00,36.9,31.3,29.55,West,272,5.0,7.0,80,0.00,,---,0.01,VWS V14.01,2013-03-03 16:10:00,
2013-03-03 11:12:00,35.7,31.0,29.56,NW,323,1.0,7.0,83,0.00,,---,0.01,VWS V14.01,2013-03-03 16:12:00,
2013-03-03 11:15:00,37.4,31.8,29.55,WSW,256,2.0,6.0,80,0.00,,---,0.01,VWS V14.01,2013-03-03 16:15:00,
2013-03-03 11:18:00,35.9,31.0,29.56,NNW,331,3.0,3.0,82,0.00,,---,0.01,VWS V14.01,2013-03-03 16:18:00,
2013-03-03 11:20:00,37.5,31.3,29.55,WNW,283,3.0,6.0,78,0.00,,---,0.01,VWS V14.01,2013-03-03 16:20:00,
2013-03-03 11:23:00,36.0,30.8,29.56,SSW,197,0.0,7.0,81,0.00,,---,0.01,VWS V14.01,2013-03-03 16:23:00,
2013-03-03 11:25:00,37.9,31.7,29.54,NW,318,1.0,6.0,78,0.00,,---,0.01,VWS V14.01,2013-03-03 16:25:00,
2013-03-03 11:28:00,36.3,31.3,29.56,West,263,5.0,6.0,82,0.00,,---,0.01,VWS V14.01,2013-03-03 16:28:00,
2013-03-03 11:30:00,38.0,31.4,29.54,SW,229,3.0,8.0,77,0.00,,---,0.01,VWS V14.01,2013-03-03 16:30:00,
2013-03-03 11:33:00,36.6,31.0,29.56,NW,309,1.0,11.0,80,0.00,,---,0.01,VWS V14.01,2013-03-03 16:33:00,
2013-03-03 11:35:00,38.0,31.8,29.54,WSW,257,0.0,7.0,78,0.00,,---,0.01,VWS V14.01,2013-03-03 16:35:00,
2013-03-03 11:38:00,36.7,31.4,29.56,West,269,3.0,7.0,81,0.00,,---,0.01,VWS V14.01,2013-03-03 16:38:00,
2013-03-03 11:40:00,38.5,31.9,29.53,WNW,296,0.0,4.0,77,0.00,,---,0.01,VWS V14.01,2013-03-03 16:40:00,
2013-03-03 11:43:00,36.6,31.0,29.56,WNW,301,0.0,5.0,80,0.00,,---,0.01,VWS V14.01,2013-03-03 16:43:00,
2013-03-03 11:45:00,39.0,32.1,29.53,NNW,346,5.0,6.0,76,0.00,,---,0.01,VWS V14.01,2013-03-03 16:45:00,
2013-03-03 11:48:00,37.2,31.6,29.55,WNW,299,2.0,4.0,80,0.00,,---,0.01,VWS V14.01,2013-03-03 16:48:00,
2013-03-03 11:50:00,38.8,31.9,29.53,WNW,300,0.0,7.0,76,0.00,,---,0.01,VWS V14.01,2013-03-03 16:50:00,
2013-03-03 11:53:00,37.5,31.9,29.55,WSW,247,1.0,7.0,80,0.00,,---,0.01,VWS V14.01,2013-03-03 16:53:00,
2013-03-03 11:55:00,38.8,31.9,29.53,West,270,2.0,7.0,76,0.00,,---,0.01,VWS V14.01,2013-03-03 16:55:00,
2013-03-03 11:58:00,37.4,31.5,29.55,WNW,287,5.0,12.0,79,0.00,,---,0.01,VWS V14.01,2013-03-03 16:58:00,
2013-03-03 12:00:00,38.6,31.7,29.53,North,5,2.0,6.0,76,0.00,,---,0.01,VWS V14.01,2013-03-03 17:00:00,
2013-03-03 12:03:00,37.1,31.5,29.55,WNW,290,1.0,6.0,80,0.00,,---,0.01,VWS V14.01,2013-03-03 17:03:00,
2013-03-03 12:05:00,38.7,32.1,29.53,NNW,331,3.0,5.0,77,0.00,,---,0.01,VWS V14.01,2013-03-03 17:05:00,
2013-03-03 12:08:00,36.9,31.3,29.55,West,272,5.0,7.0,80,0.00,,---,0.01,VWS V14.01,2013-03-03 17:08:00,
2013-03-03 12:10:00,38.7,32.1,29.53,NNW,344,5.0,7.0,77,0.00,,---,0.01,VWS V14.01,2013-03-03 17:10:00,
2013-03-03 12:13:00,37.4,31.8,29.55,WSW,256,2.0,6.0,80,0.00,,---,0.01,VWS V14.01,2013-03-03 17:13:00,
2013-03-03 12:15:00,38.7,32.1,29.53,NW,321,3.0,5.0,77,0.00,,---,0.01,VWS V14.01,2013-03-03 17:15:00,
2013-03-03 12:18:00,37.5,31.3,29.55,WNW,283,3.0,6.0,78,0.00,,---,0.01,VWS V14.01,2013-03-03 17:18:00,
2013-03-03 12:20:00,38.9,32.3,29.52,West,273,3.0,4.0,77,0.00,,---,0.01,VWS V14.01,2013-03-03 17:20:00,
2013-03-03 12:23:00,37.9,31.7,29.54,NW,318,1.0,6.0,78,0.00,,---,0.01,VWS V14.01,2013-03-03 17:23:00,
2013-03-03 12:25:00,38.9,32.3,29.52,WNW,284,2.0,10.0,77,0.00,,---,0.01,VWS V14.01,2013-03-03 17:25:00,
2013-03-03 12:28:00,38.0,31.4,29.54,SW,229,3.0,8.0,77,0.00,,---,0.01,VWS V14.01,2013-03-03 17:28:00,
2013-03-03 12:30:00,38.8,32.2,29.52,NW,322,3.0,10.0,77,0.00,,---,0.01,VWS V14.01,2013-03-03 17:30:00,
2013-03-03 12:33:00,38.0,31.8,29.54,WSW,257,0.0,7.0,78,0.00,,---,0.01,VWS V14.01,2013-03-03 17:33:00,
2013-03-03 12:35:00,38.5,31.9,29.52,NW,305,3.0,7.0,77,0.00,,---,0.01,VWS V14.01,2013-03-03 17:35:00,
2013-03-03 12:38:00,38.5,31.9,29.53,WNW,296,0.0,0.0,77,0.00,,---,0.01,VWS V14.01,2013-03-03 17:38:00,
2013-03-03 12:40:00,38.6,32.3,29.52,WNW,302,0.0,5.0,78,0.00,,---,0.01,VWS V14.01,2013-03-03 17:40:00,
2013-03-03 12:43:00,38.9,32.0,29.53,WNW,295,0.0,7.0,76,0.00,,---,0.01,VWS V14.01,2013-03-03 17:43:00,
2013-03-03 12:45:00,38.6,32.0,29.52,West,267,0.0,7.0,77,0.00,,---,0.01,VWS V14.01,2013-03-03 17:45:00,
2013-03-03 12:48:00,38.8,31.9,29.53,WNW,300,0.0,1.0,76,0.00,,---,0.01,VWS V14.01,2013-03-03 17:48:00,
2013-03-03 12:50:00,38.6,31.7,29.52,NW,311,2.0,6.0,76,0.00,,---,0.01,VWS V14.01,2013-03-03 17:50:00,
2013-03-03 12:53:00,38.8,31.9,29.53,West,269,1.0,2.0,76,0.00,,---,0.01,VWS V14.01,2013-03-03 17:53:00,
2013-03-03 12:55:00,38.6,32.0,29.52,NNE,15,3.0,5.0,77,0.00,,---,0.01,VWS V14.01,2013-03-03 17:55:00,
2013-03-03 12:58:00,38.6,31.7,29.53,North,5,1.0,2.0,76,0.00,,---,0.01,VWS V14.01,2013-03-03 17:58:00,
2013-03-03 13:00:00,38.5,31.9,29.52,West,279,1.0,11.0,77,0.00,,---,0.01,VWS V14.01,2013-03-03 18:00:00,
2013-03-03 13:03:00,38.7,32.1,29.53,NNW,346,5.0,7.0,77,0.00,,---,0.01,VWS V14.01,2013-03-03 18:03:00,
2013-03-03 13:05:00,38.4,32.2,29.52,WNW,297,0.0,8.0,78,0.00,,---,0.01,VWS V14.01,2013-03-03 18:05:00,
2013-03-03 13:08:00,38.7,32.1,29.53,NNW,345,0.0,5.0,77,0.00,,---,0.01,VWS V14.01,2013-03-03 18:08:00,
2013-03-03 13:10:00,38.4,32.2,29.52,WSW,246,9.0,11.0,78,0.00,,---,0.01,VWS V14.01,2013-03-03 18:10:00,
2013-03-03 13:14:00,38.7,32.1,29.53,NNE,26,0.0,4.0,77,0.00,,---,0.01,VWS V14.01,2013-03-03 18:14:00,
2013-03-03 13:15:00,38.4,32.2,29.52,WSW,243,1.0,9.0,78,0.00,,---,0.01,VWS V14.01,2013-03-03 18:15:00,
2013-03-03 13:19:00,38.9,32.3,29.53,WSW,249,4.0,5.0,77,0.00,,---,0.01,VWS V14.01,2013-03-03 18:19:00,
2013-03-03 13:20:00,38.5,32.2,29.52,WNW,294,0.0,10.0,78,0.00,,---,0.01,VWS V14.01,2013-03-03 18:20:00,
2013-03-03 13:24:00,38.9,32.3,29.52,WNW,284,0.0,2.0,77,0.00,,---,0.01,VWS V14.01,2013-03-03 18:24:00,
2013-03-03 13:25:00,38.6,32.3,29.52,WSW,245,1.0,2.0,78,0.00,,---,0.01,VWS V14.01,2013-03-03 18:25:00,
2013-03-03 13:29:00,38.7,32.1,29.52,NW,322,1.0,3.0,77,0.00,,---,0.01,VWS V14.01,2013-03-03 18:29:00,
2013-03-03 13:30:00,38.7,32.4,29.52,West,260,0.0,4.0,78,0.00,,---,0.01,VWS V14.01,2013-03-03 18:30:00,
2013-03-03 13:34:00,38.5,32.2,29.52,WNW,302,2.0,4.0,78,0.00,,---,0.01,VWS V14.01,2013-03-03 18:34:00,
2013-03-03 13:35:00,38.9,32.3,29.52,West,259,1.0,3.0,77,0.00,,---,0.01,VWS V14.01,2013-03-03 18:35:00,
2013-03-03 13:39:00,38.6,32.0,29.52,NW,319,3.0,3.0,77,0.00,,---,0.01,VWS V14.01,2013-03-03 18:39:00,
2013-03-03 13:40:00,39.0,32.4,29.52,SW,228,1.0,5.0,77,0.00,,---,0.01,VWS V14.01,2013-03-03 18:40:00,
2013-03-03 13:44:00,38.6,32.0,29.52,NW,308,2.0,3.0,77,0.00,,---,0.01,VWS V14.01,2013-03-03 18:44:00,
2013-03-03 13:45:00,39.1,32.5,29.51,NW,316,0.0,6.0,77,0.00,,---,0.01,VWS V14.01,2013-03-03 18:45:00,
2013-03-03 13:49:00,38.6,31.7,29.52,NW,313,3.0,4.0,76,0.00,,---,0.01,VWS V14.01,2013-03-03 18:49:00,
2013-03-03 13:50:00,39.2,32.3,29.51,SW,227,0.0,3.0,76,0.00,,---,0.01,VWS V14.01,2013-03-03 18:50:00,
2013-03-03 13:54:00,38.6,32.0,29.52,NNW,330,7.0,7.0,77,0.00,,---,0.01,VWS V14.01,2013-03-03 18:54:00,
2013-03-03 13:55:00,39.3,32.4,29.51,SW,227,0.0,2.0,76,0.00,,---,0.01,VWS V14.01,2013-03-03 18:55:00,
2013-03-03 13:59:00,38.5,31.9,29.52,WSW,252,6.0,8.0,77,0.00,,---,0.01,VWS V14.01,2013-03-03 18:59:00,
2013-03-03 14:00:00,39.5,32.6,29.51,West,281,3.0,3.0,76,0.00,,---,0.01,VWS V14.01,2013-03-03 19:00:00,
2013-03-03 14:04:00,38.4,32.2,29.52,West,269,5.0,6.0,78,0.00,,---,0.01,VWS V14.01,2013-03-03 19:04:00,
2013-03-03 14:05:00,39.7,32.4,29.51,West,260,0.0,4.0,75,0.00,,---,0.01,VWS V14.01,2013-03-03 19:05:00,
2013-03-03 14:09:00,38.4,32.2,29.52,West,280,5.0,9.0,78,0.00,,---,0.01,VWS V14.01,2013-03-03 19:09:00,
2013-03-03 14:10:00,39.7,32.1,29.51,WNW,286,2.0,5.0,74,0.00,,---,0.01,VWS V14.01,2013-03-03 19:10:00,
2013-03-03 14:14:00,38.5,32.2,29.52,NW,321,1.0,10.0,78,0.00,,---,0.01,VWS V14.01,2013-03-03 19:14:00,
2013-03-03 14:15:00,39.7,32.1,29.51,WSW,250,1.0,3.0,74,0.00,,---,0.01,VWS V14.01,2013-03-03 19:15:00,
2013-03-03 14:19:00,38.5,32.2,29.52,WNW,294,0.0,1.0,78,0.00,,---,0.01,VWS V14.01,2013-03-03 19:19:00,
2013-03-03 14:20:00,39.7,32.1,29.51,WSW,257,2.0,6.0,74,0.00,,---,0.01,VWS V14.01,2013-03-03 19:20:00,
2013-03-03 14:24:00,38.6,32.3,29.52,West,260,1.0,4.0,78,0.00,,---,0.01,VWS V14.01,2013-03-03 19:24:00,
2013-03-03 14:25:00,39.6,31.7,29.51,WNW,296,1.0,8.0,73,0.00,,---,0.01,VWS V14.01,2013-03-03 19:25:00,
2013-03-03 14:29:00,38.7,32.4,29.51,West,260,0.0,1.0,78,0.00,,---,0.01,VWS V14.01,2013-03-03 19:29:00,
2013-03-03 14:30:00,39.5,31.9,29.51,North,355,1.0,3.0,74,0.00,,---,0.01,VWS V14.01,2013-03-03 19:30:00,
2013-03-03 14:34:00,39.0,32.4,29.52,WSW,246,0.0,5.0,77,0.00,,---,0.01,VWS V14.01,2013-03-03 19:34:00,
2013-03-03 14:35:00,39.5,31.9,29.51,NNW,340,2.0,5.0,74,0.00,,---,0.01,VWS V14.01,2013-03-03 19:35:00,
2013-03-03 14:39:00,39.1,32.5,29.52,SW,227,2.0,6.0,77,0.00,,---,0.01,VWS V14.01,2013-03-03 19:39:00,
2013-03-03 14:40:00,39.5,32.6,29.52,NW,325,6.0,6.0,76,0.00,,---,0.01,VWS V14.01,2013-03-03 19:40:00,
2013-03-03 14:44:00,39.2,32.6,29.51,WSW,246,1.0,3.0,77,0.00,,---,0.01,VWS V14.01,2013-03-03 19:44:00,
2013-03-03 14:45:00,39.4,32.5,29.51,WSW,245,2.0,6.0,76,0.00,,---,0.01,VWS V14.01,2013-03-03 19:45:00,
2013-03-03 14:50:00,39.2,32.3,29.51,SW,227,0.0,0.0,76,0.00,,---,0.01,VWS V14.01,2013-03-03 19:50:00,
2013-03-03 14:55:00,39.4,32.5,29.52,SW,227,0.0,1.0,76,0.00,,---,0.01,VWS V14.01,2013-03-03 19:55:00,
2013-03-03 15:00:00,39.6,32.7,29.51,WNW,302,1.0,3.0,76,0.00,,---,0.01,VWS V14.01,2013-03-03 20:00:00,
2013-03-03 15:05:00,39.7,32.4,29.51,SW,232,0.0,3.0,75,0.00,,---,0.01,VWS V14.01,2013-03-03 20:05:00,
2013-03-03 15:10:00,39.8,32.2,29.51,West,275,1.0,2.0,74,0.00,,---,0.01,VWS V14.01,2013-03-03 20:10:00,
2013-03-03 15:15:00,39.7,32.1,29.51,WNW,300,1.0,6.0,74,0.00,,---,0.01,VWS V14.01,2013-03-03 20:15:00,
2013-03-03 15:20:00,39.6,31.7,29.51,WSW,257,3.0,8.0,73,0.00,,---,0.01,VWS V14.01,2013-03-03 20:20:00,
2013-03-03 15:25:00,39.6,32.0,29.51,NNE,22,0.0,2.0,74,0.00,,---,0.01,VWS V14.01,2013-03-03 20:25:00,
2013-03-03 15:30:00,39.5,31.9,29.51,NW,314,0.0,5.0,74,0.00,,---,0.01,VWS V14.01,2013-03-03 20:30:00,
2013-03-03 15:35:00,39.5,32.2,29.52,NW,325,0.0,3.0,75,0.00,,---,0.01,VWS V14.01,2013-03-03 20:35:00,
2013-03-03 15:40:00,39.5,32.6,29.51,West,272,1.0,6.0,76,0.00,,---,0.01,VWS V14.01,2013-03-03 20:40:00,
2013-03-03 15:45:00,39.3,32.4,29.51,NNW,331,1.0,5.0,76,0.00,,---,0.01,VWS V14.01,2013-03-03 20:45:00,
2013-03-03 15:50:00,38.7,32.1,29.52,West,261,0.0,5.0,77,0.00,,---,0.01,VWS V14.01,2013-03-03 20:50:00,
2013-03-03 15:51:00,39.2,32.6,29.51,NW,326,3.0,6.0,77,0.00,,---,0.01,VWS V14.01,2013-03-03 20:51:00,
2013-03-03 15:55:00,38.6,32.0,29.52,WNW,296,0.0,6.0,77,0.00,,---,0.01,VWS V14.01,2013-03-03 20:55:00,
2013-03-03 15:56:00,39.1,32.5,29.51,West,271,2.0,4.0,77,0.00,,---,0.01,VWS V14.01,2013-03-03 20:56:00,
2013-03-03 16:00:00,38.6,32.0,29.52,SSW,194,0.0,7.0,77,0.00,,---,0.01,VWS V14.01,2013-03-03 21:00:00,
2013-03-03 16:01:00,38.9,32.6,29.51,NE,46,2.0,5.0,78,0.00,,---,0.01,VWS V14.01,2013-03-03 21:01:00,
2013-03-03 16:05:00,38.5,31.9,29.52,West,273,3.0,7.0,77,0.00,,---,0.01,VWS V14.01,2013-03-03 21:05:00,
2013-03-03 16:06:00,38.9,32.6,29.51,WNW,288,1.0,4.0,78,0.00,,---,0.01,VWS V14.01,2013-03-03 21:06:00,
2013-03-03 16:10:00,38.5,31.9,29.52,West,260,0.0,4.0,77,0.00,,---,0.01,VWS V14.01,2013-03-03 21:10:00,
2013-03-03 16:11:00,38.8,32.5,29.51,WNW,288,0.0,3.0,78,0.00,,---,0.01,VWS V14.01,2013-03-03 21:11:00,
2013-03-03 16:15:00,38.4,31.8,29.52,West,274,1.0,2.0,77,0.00,,---,0.01,VWS V14.01,2013-03-03 21:15:00,
2013-03-03 16:16:00,38.8,32.5,29.51,West,261,2.0,5.0,78,0.00,,---,0.01,VWS V14.01,2013-03-03 21:16:00,
2013-03-03 16:20:00,38.4,31.5,29.52,WNW,293,4.0,9.0,76,0.00,,---,0.01,VWS V14.01,2013-03-03 21:20:00,
2013-03-03 16:21:00,38.8,32.5,29.51,West,268,0.0,3.0,78,0.00,,---,0.01,VWS V14.01,2013-03-03 21:21:00,
2013-03-03 16:25:00,38.3,31.4,29.52,West,275,6.0,6.0,76,0.00,,---,0.01,VWS V14.01,2013-03-03 21:25:00,
2013-03-03 16:26:00,38.8,32.5,29.52,WSW,254,0.0,5.0,78,0.00,,---,0.01,VWS V14.01,2013-03-03 21:26:00,
2013-03-03 16:30:00,38.2,31.3,29.53,West,261,0.0,6.0,76,0.00,,---,0.01,VWS V14.01,2013-03-03 21:30:00,
2013-03-03 16:31:00,38.8,32.5,29.52,WSW,248,1.0,7.0,78,0.00,,---,0.01,VWS V14.01,2013-03-03 21:31:00,
2013-03-03 16:35:00,38.2,31.3,29.53,West,266,2.0,4.0,76,0.00,,---,0.01,VWS V14.01,2013-03-03 21:35:00,
2013-03-03 16:36:00,38.8,32.2,29.52,WSW,258,0.0,7.0,77,0.00,,---,0.01,VWS V14.01,2013-03-03 21:36:00,
2013-03-03 16:40:00,38.1,31.2,29.53,WNW,285,6.0,10.0,76,0.00,,---,0.01,VWS V14.01,2013-03-03 21:40:00,
2013-03-03 16:41:00,38.7,32.1,29.52,WNW,284,0.0,4.0,77,0.00,,---,0.01,VWS V14.01,2013-03-03 21:41:00,
2013-03-03 16:45:00,38.0,30.8,29.53,West,275,3.0,6.0,75,0.00,,---,0.01,VWS V14.01,2013-03-03 21:45:00,
2013-03-03 16:46:00,38.7,32.1,29.52,WSW,252,2.0,5.0,77,0.00,,---,0.01,VWS V14.01,2013-03-03 21:46:00,
2013-03-03 16:50:00,38.0,30.8,29.53,WNW,302,1.0,7.0,75,0.00,,---,0.01,VWS V14.01,2013-03-03 21:50:00,
2013-03-03 16:51:00,38.7,32.1,29.52,WSW,257,2.0,6.0,77,0.00,,---,0.01,VWS V14.01,2013-03-03 21:51:00,
2013-03-03 16:55:00,37.9,30.4,29.53,WNW,282,2.0,7.0,74,0.00,,---,0.01,VWS V14.01,2013-03-03 21:55:00,
2013-03-03 16:57:00,38.6,32.0,29.52,SSW,194,0.0,7.0,77,0.00,,---,0.01,VWS V14.01,2013-03-03 21:57:00,
2013-03-03 17:00:00,37.9,30.4,29.53,WSW,238,0.0,4.0,74,0.00,,---,0.01,VWS V14.01,2013-03-03 22:00:00,
2013-03-03 17:02:00,38.5,31.9,29.52,WSW,247,2.0,7.0,77,0.00,,---,0.01,VWS V14.01,2013-03-03 22:02:00,
2013-03-03 17:05:00,37.8,30.6,29.53,WSW,251,1.0,3.0,75,0.00,,---,0.01,VWS V14.01,2013-03-03 22:05:00,
2013-03-03 17:07:00,38.5,31.9,29.52,WSW,256,1.0,4.0,77,0.00,,---,0.01,VWS V14.01,2013-03-03 22:07:00,
2013-03-03 17:10:00,37.7,30.5,29.53,SW,217,7.0,7.0,75,0.00,,---,0.01,VWS V14.01,2013-03-03 22:10:00,
2013-03-03 17:12:00,38.4,31.8,29.52,WNW,289,0.0,2.0,77,0.00,,---,0.01,VWS V14.01,2013-03-03 22:12:00,
2013-03-03 17:15:00,37.5,30.3,29.53,North,360,2.0,7.0,75,0.00,,---,0.01,VWS V14.01,2013-03-03 22:15:00,
2013-03-03 17:17:00,38.4,31.5,29.52,WNW,294,2.0,5.0,76,0.00,,---,0.01,VWS V14.01,2013-03-03 22:17:00,
2013-03-03 17:20:00,37.4,30.2,29.53,ENE,63,3.0,10.0,75,0.00,,---,0.01,VWS V14.01,2013-03-03 22:20:00,
2013-03-03 17:22:00,38.3,31.4,29.52,North,350,3.0,5.0,76,0.00,,---,0.01,VWS V14.01,2013-03-03 22:22:00,
2013-03-03 17:25:00,37.2,30.3,29.54,NW,309,0.0,6.0,76,0.00,,---,0.01,VWS V14.01,2013-03-03 22:25:00,
2013-03-03 17:27:00,38.2,31.3,29.53,West,261,0.0,6.0,76,0.00,,---,0.01,VWS V14.01,2013-03-03 22:27:00,
2013-03-03 17:30:00,37.1,30.2,29.54,NW,317,3.0,3.0,76,0.00,,---,0.01,VWS V14.01,2013-03-03 22:30:00,
2013-03-03 17:32:00,38.2,31.3,29.53,SW,235,2.0,4.0,76,0.00,,---,0.01,VWS V14.01,2013-03-03 22:32:00,
2013-03-03 17:35:00,37.0,30.1,29.54,WNW,287,1.0,7.0,76,0.00,,---,0.01,VWS V14.01,2013-03-03 22:35:00,
2013-03-03 17:37:00,38.1,30.9,29.53,West,274,10.0,10.0,75,0.00,,---,0.01,VWS V14.01,2013-03-03 22:37:00,
2013-03-03 17:40:00,36.9,30.0,29.54,WNW,293,6.0,11.0,76,0.00,,---,0.01,VWS V14.01,2013-03-03 22:40:00,
2013-03-03 17:42:00,38.0,30.8,29.53,NNW,337,3.0,6.0,75,0.00,,---,0.01,VWS V14.01,2013-03-03 22:42:00,
2013-03-03 17:45:00,36.9,30.0,29.54,WNW,282,0.0,6.0,76,0.00,,---,0.01,VWS V14.01,2013-03-03 22:45:00,
2013-03-03 17:47:00,38.0,30.8,29.53,West,271,0.0,7.0,75,0.00,,---,0.01,VWS V14.01,2013-03-03 22:47:00,
2013-03-03 17:50:00,36.7,29.9,29.54,West,272,0.0,4.0,76,0.00,,---,0.01,VWS V14.01,2013-03-03 22:50:00,
2013-03-03 17:52:00,37.9,30.4,29.53,WNW,300,0.0,7.0,74,0.00,,---,0.01,VWS V14.01,2013-03-03 22:52:00,
2013-03-03 17:55:00,36.6,29.8,29.54,WSW,252,3.0,5.0,76,0.00,,---,0.01,VWS V14.01,2013-03-03 22:55:00,
2013-03-03 17:57:00,37.9,30.4,29.53,WSW,238,0.0,4.0,74,0.00,,---,0.01,VWS V14.01,2013-03-03 22:57:00,
2013-03-03 18:00:00,36.6,29.4,29.54,WNW,293,1.0,5.0,75,0.00,,---,0.01,VWS V14.01,2013-03-03 23:00:00,
2013-03-03 18:02:00,37.8,30.6,29.53,WSW,251,0.0,3.0,75,0.00,,---,0.01,VWS V14.01,2013-03-03 23:02:00,
2013-03-03 18:05:00,36.6,29.4,29.54,NNE,13,1.0,6.0,75,0.00,,---,0.01,VWS V14.01,2013-03-03 23:05:00,
2013-03-03 18:07:00,37.7,30.5,29.53,West,269,1.0,6.0,75,0.00,,---,0.01,VWS V14.01,2013-03-03 23:07:00,
2013-03-03 18:10:00,36.6,29.4,29.54,WNW,298,3.0,3.0,75,0.00,,---,0.01,VWS V14.01,2013-03-03 23:10:00,
2013-03-03 18:13:00,37.6,30.4,29.53,NE,34,5.0,7.0,75,0.00,,---,0.01,VWS V14.01,2013-03-03 23:13:00,
2013-03-03 18:15:00,36.6,29.4,29.54,WNW,290,2.0,3.0,75,0.00,,---,0.01,VWS V14.01,2013-03-03 23:15:00,
2013-03-03 18:18:00,37.4,30.2,29.53,North,5,2.0,10.0,75,0.00,,---,0.01,VWS V14.01,2013-03-03 23:18:00,
2013-03-03 18:20:00,36.6,29.4,29.55,WNW,292,0.0,4.0,75,0.00,,---,0.01,VWS V14.01,2013-03-03 23:20:00,
2013-03-03 18:23:00,37.2,30.4,29.54,NW,309,0.0,6.0,76,0.00,,---,0.01,VWS V14.01,2013-03-03 23:23:00,
2013-03-03 18:25:00,36.5,29.3,29.55,West,275,3.0,5.0,75,0.00,,---,0.01,VWS V14.01,2013-03-03 23:25:00,
2013-03-03 18:28:00,37.1,30.2,29.54,NW,309,1.0,2.0,76,0.00,,---,0.01,VWS V14.01,2013-03-03 23:28:00,
2013-03-03 18:30:00,36.5,29.7,29.55,WNW,302,3.0,6.0,76,0.00,,---,0.01,VWS V14.01,2013-03-03 23:30:00,
2013-03-03 18:33:00,37.0,30.1,29.54,WNW,287,0.0,7.0,76,0.00,,---,0.01,VWS V14.01,2013-03-03 23:33:00,
2013-03-03 18:35:00,36.4,29.6,29.54,NNW,333,0.0,5.0,76,0.00,,---,0.01,VWS V14.01,2013-03-03 23:35:00,
2013-03-03 18:38:00,36.9,30.0,29.54,NW,304,6.0,11.0,76,0.00,,---,0.01,VWS V14.01,2013-03-03 23:38:00,
2013-03-03 18:40:00,36.4,29.6,29.54,NNW,344,0.0,7.0,76,0.00,,---,0.01,VWS V14.01,2013-03-03 23:40:00,
2013-03-03 18:43:00,36.9,30.0,29.54,WNW,282,0.0,6.0,76,0.00,,---,0.01,VWS V14.01,2013-03-03 23:43:00,
2013-03-03 18:45:00,36.4,29.6,29.55,WNW,291,0.0,14.0,76,0.00,,---,0.01,VWS V14.01,2013-03-03 23:45:00,
2013-03-03 18:48:00,36.7,29.9,29.54,West,272,0.0,4.0,76,0.00,,---,0.01,VWS V14.01,2013-03-03 23:48:00,
2013-03-03 18:50:00,36.4,29.6,29.55,NW,309,2.0,7.0,76,0.00,,---,0.01,VWS V14.01,2013-03-03 23:50:00,
2013-03-03 18:53:00,36.6,29.8,29.54,WSW,252,3.0,5.0,76,0.00,,---,0.01,VWS V14.01,2013-03-03 23:53:00,
2013-03-03 18:55:00,36.4,29.2,29.55,WSW,255,2.0,4.0,75,0.00,,---,0.01,VWS V14.01,2013-03-03 23:55:00,
2013-03-03 18:58:00,36.6,29.4,29.54,WNW,293,1.0,5.0,75,0.00,,---,0.01,VWS V14.01,2013-03-03 23:58:00,
2013-03-03 19:00:00,36.3,29.5,29.55,West,279,6.0,6.0,76,0.00,,---,0.01,VWS V14.01,2013-03-04 00:00:00,
2013-03-03 19:03:00,36.6,29.4,29.54,NNE,13,1.0,6.0,75,0.00,,---,0.01,VWS V14.01,2013-03-04 00:03:00,
2013-03-03 19:05:00,36.4,29.2,29.55,West,264,0.0,6.0,75,0.00,,---,0.01,VWS V14.01,2013-03-04 00:05:00,
2013-03-03 19:08:00,36.6,29.4,29.54,WNW,298,3.0,3.0,75,0.00,,---,0.01,VWS V14.01,2013-03-04 00:08:00,
2013-03-03 19:10:00,36.5,29.0,29.55,NW,309,0.0,11.0,74,0.00,,---,0.01,VWS V14.01,2013-03-04 00:10:00,
2013-03-03 19:13:00,36.6,29.4,29.54,WNW,290,0.0,2.0,75,0.00,,---,0.01,VWS V14.01,2013-03-04 00:13:00,
2013-03-03 19:15:00,36.5,29.0,29.55,WNW,301,1.0,8.0,74,0.00,,---,0.01,VWS V14.01,2013-03-04 00:15:00,
2013-03-03 19:18:00,36.6,29.4,29.55,WNW,292,0.0,0.0,75,0.00,,---,0.01,VWS V14.01,2013-03-04 00:18:00,
2013-03-03 19:20:00,36.6,28.8,29.55,West,263,3.0,11.0,73,0.00,,---,0.01,VWS V14.01,2013-03-04 00:20:00,
2013-03-03 19:23:00,36.5,29.3,29.55,SW,219,4.0,4.0,75,0.00,,---,0.01,VWS V14.01,2013-03-04 00:23:00,
2013-03-03 19:25:00,36.5,29.0,29.55,NW,315,0.0,9.0,74,0.00,,---,0.01,VWS V14.01,2013-03-04 00:25:00,
2013-03-03 19:28:00,36.5,29.7,29.54,West,260,1.0,3.0,76,0.00,,---,0.01,VWS V14.01,2013-03-04 00:28:00,
2013-03-03 19:30:00,36.5,29.0,29.55,North,355,3.0,8.0,74,0.00,,---,0.01,VWS V14.01,2013-03-04 00:30:00,
2013-03-03 19:33:00,36.4,29.6,29.54,NNW,333,0.0,0.0,76,0.00,,---,0.01,VWS V14.01,2013-03-04 00:33:00,
2013-03-03 19:35:00,36.5,29.0,29.55,SSW,206,0.0,11.0,74,0.00,,---,0.01,VWS V14.01,2013-03-04 00:35:00,
2013-03-03 19:38:00,36.4,29.6,29.54,WSW,248,1.0,1.0,76,0.00,,---,0.01,VWS V14.01,2013-03-04 00:38:00,
2013-03-03 19:40:00,36.4,28.9,29.55,ESE,119,1.0,4.0,74,0.00,,---,0.01,VWS V14.01,2013-03-04 00:40:00,
2013-03-03 19:43:00,36.4,29.6,29.55,WNW,291,0.0,0.0,76,0.00,,---,0.01,VWS V14.01,2013-03-04 00:43:00,
2013-03-03 19:45:00,36.4,28.9,29.55,WNW,296,3.0,6.0,74,0.00,,---,0.01,VWS V14.01,2013-03-04 00:45:00,
2013-03-03 19:48:00,36.4,29.2,29.55,NW,307,0.0,2.0,75,0.00,,---,0.01,VWS V14.01,2013-03-04 00:48:00,
2013-03-03 19:50:00,36.3,28.8,29.56,NW,306,1.0,13.0,74,0.00,,---,0.01,VWS V14.01,2013-03-04 00:50:00,
2013-03-03 19:53:00,36.4,29.6,29.55,WSW,257,3.0,3.0,76,0.00,,---,0.01,VWS V14.01,2013-03-04 00:53:00,
2013-03-03 19:55:00,36.2,28.7,29.55,NNE,17,0.0,8.0,74,0.00,,---,0.01,VWS V14.01,2013-03-04 00:55:00,
2013-03-03 19:59:00,36.3,29.1,29.55,WNW,296,3.0,6.0,75,0.00,,---,0.01,VWS V14.01,2013-03-04 00:59:00,
2013-03-03 20:00:00,36.2,28.7,29.55,NW,306,1.0,10.0,74,0.00,,---,0.01,VWS V14.01,2013-03-04 01:00:00,
2013-03-03 20:04:00,36.4,29.2,29.55,West,275,10.0,11.0,75,0.00,,---,0.01,VWS V14.01,2013-03-04 01:04:00,
2013-03-03 20:05:00,36.1,28.6,29.56,WNW,301,2.0,12.0,74,0.00,,---,0.01,VWS V14.01,2013-03-04 01:05:00,
2013-03-03 20:09:00,36.4,28.9,29.55,North,355,1.0,3.0,74,0.00,,---,0.01,VWS V14.01,2013-03-04 01:09:00,
2013-03-03 20:10:00,36.1,29.0,29.56,NNW,340,0.0,5.0,75,0.00,,---,0.01,VWS V14.01,2013-03-04 01:10:00,
2013-03-03 20:14:00,36.5,29.0,29.55,WNW,301,0.0,1.0,74,0.00,,---,0.01,VWS V14.01,2013-03-04 01:14:00,
2013-03-03 20:15:00,36.0,28.9,29.56,NW,320,0.0,5.0,75,0.00,,---,0.01,VWS V14.01,2013-03-04 01:15:00,
2013-03-03 20:19:00,36.6,29.1,29.55,WNW,287,3.0,9.0,74,0.00,,---,0.01,VWS V14.01,2013-03-04 01:19:00,
2013-03-03 20:20:00,35.9,28.8,29.56,NW,315,3.0,7.0,75,0.00,,---,0.01,VWS V14.01,2013-03-04 01:20:00,
2013-03-03 20:24:00,36.6,29.1,29.55,West,277,4.0,5.0,74,0.00,,---,0.01,VWS V14.01,2013-03-04 01:24:00,
2013-03-03 20:25:00,35.8,28.7,29.56,NW,308,0.0,6.0,75,0.00,,---,0.01,VWS V14.01,2013-03-04 01:25:00,
2013-03-03 20:29:00,36.5,28.7,29.55,West,272,1.0,4.0,73,0.00,,---,0.01,VWS V14.01,2013-03-04 01:29:00,
2013-03-03 20:30:00,35.7,28.6,29.56,North,355,0.0,10.0,75,0.00,,---,0.01,VWS V14.01,2013-03-04 01:30:00,
2013-03-03 20:34:00,36.4,28.9,29.56,NW,310,1.0,3.0,74,0.00,,---,0.01,VWS V14.01,2013-03-04 01:34:00,
2013-03-03 20:35:00,35.7,28.9,29.55,NW,313,0.0,5.0,76,0.00,,---,0.01,VWS V14.01,2013-03-04 01:35:00,
2013-03-03 20:39:00,36.4,28.9,29.55,NE,38,1.0,2.0,74,0.00,,---,0.01,VWS V14.01,2013-03-04 01:39:00,
2013-03-03 20:40:00,35.6,28.8,29.55,North,5,4.0,9.0,76,0.00,,---,0.01,VWS V14.01,2013-03-04 01:40:00,
2013-03-03 20:44:00,36.4,28.9,29.55,West,265,4.0,13.0,74,0.00,,---,0.01,VWS V14.01,2013-03-04 01:44:00,
2013-03-03 20:45:00,35.5,28.7,29.55,NW,323,4.0,11.0,76,0.00,,---,0.01,VWS V14.01,2013-03-04 01:45:00,
2013-03-03 20:49:00,36.2,28.7,29.55,WNW,290,0.0,7.0,74,0.00,,---,0.01,VWS V14.01,2013-03-04 01:49:00,
2013-03-03 20:50:00,35.6,28.5,29.55,North,5,5.0,10.0,75,0.00,,---,0.01,VWS V14.01,2013-03-04 01:50:00,
2013-03-03 20:54:00,36.2,28.7,29.56,North,355,0.0,4.0,74,0.00,,---,0.01,VWS V14.01,2013-03-04 01:54:00,
2013-03-03 20:55:00,35.5,28.4,29.55,NW,307,4.0,5.0,75,0.00,,---,0.01,VWS V14.01,2013-03-04 01:55:00,
2013-03-03 20:59:00,36.2,28.7,29.55,NW,306,1.0,1.0,74,0.00,,---,0.01,VWS V14.01,2013-03-04 01:59:00,
2013-03-03 21:00:00,35.5,28.4,29.55,West,281,2.0,10.0,75,0.00,,---,0.01,VWS V14.01,2013-03-04 02:00:00,
2013-03-03 21:04:00,36.1,28.6,29.56,West,276,4.0,5.0,74,0.00,,---,0.01,VWS V14.01,2013-03-04 02:04:00,
2013-03-03 21:05:00,35.4,28.0,29.55,NW,320,3.0,8.0,74,0.00,,---,0.01,VWS V14.01,2013-03-04 02:05:00,
2013-03-03 21:09:00,36.1,29.0,29.56,NNW,340,1.0,1.0,75,0.00,,---,0.01,VWS V14.01,2013-03-04 02:09:00,
2013-03-03 21:10:00,35.4,28.0,29.55,WNW,290,2.0,9.0,74,0.00,,---,0.01,VWS V14.01,2013-03-04 02:10:00,
2013-03-03 21:15:00,36.0,28.9,29.56,North,9,0.0,2.0,75,0.00,,---,0.01,VWS V14.01,2013-03-04 02:15:00,
2013-03-03 21:20:00,35.9,28.8,29.56,NNW,340,2.0,5.0,75,0.00,,---,0.01,VWS V14.01,2013-03-04 02:20:00,
2013-03-03 21:25:00,35.8,28.7,29.56,NNW,331,1.0,6.0,75,0.00,,---,0.01,VWS V14.01,2013-03-04 02:25:00,
2013-03-03 21:30:00,35.7,28.9,29.55,NW,323,0.0,2.0,76,0.00,,---,0.01,VWS V14.01,2013-03-04 02:30:00,
2013-03-03 21:35:00,35.6,28.8,29.55,SW,230,1.0,5.0,76,0.00,,---,0.01,VWS V14.01,2013-03-04 02:35:00,
2013-03-03 21:40:00,35.6,28.8,29.55,WNW,294,2.0,6.0,76,0.00,,---,0.01,VWS V14.01,2013-03-04 02:40:00,
2013-03-03 21:45:00,35.5,28.4,29.55,WSW,257,1.0,10.0,75,0.00,,---,0.01,VWS V14.01,2013-03-04 02:45:00,
2013-03-03 21:50:00,35.6,28.8,29.55,WNW,288,3.0,5.0,76,0.00,,---,0.01,VWS V14.01,2013-03-04 02:50:00,
2013-03-03 21:55:00,35.5,28.4,29.55,NW,315,6.0,10.0,75,0.00,,---,0.01,VWS V14.01,2013-03-04 02:55:00,
2013-03-03 22:00:00,35.4,28.3,29.55,WNW,291,4.0,7.0,75,0.00,,---,0.01,VWS V14.01,2013-03-04 03:00:00,
2013-03-03 22:05:00,35.4,28.0,29.55,West,275,2.0,9.0,74,0.00,,---,0.01,VWS V14.01,2013-03-04 03:05:00,
2013-03-03 22:10:00,35.3,28.2,29.55,West,268,4.0,6.0,75,0.00,,---,0.01,VWS V14.01,2013-03-04 03:10:00,
2013-03-03 22:15:00,35.3,27.9,29.55,NW,325,3.0,4.0,74,0.00,,---,0.01,VWS V14.01,2013-03-04 03:15:00,
2013-03-03 22:20:00,35.2,27.4,29.55,NW,305,2.0,12.0,73,0.00,,---,0.01,VWS V14.01,2013-03-04 03:20:00,
2013-03-03 22:25:00,34.5,27.1,29.55,West,279,3.0,4.0,74,0.00,,---,0.01,VWS V14.01,2013-03-04 03:25:00,
2013-03-03 22:26:00,35.1,27.3,29.55,WNW,301,0.0,4.0,73,0.00,,---,0.01,VWS V14.01,2013-03-04 03:26:00,
2013-03-03 22:30:00,34.5,27.1,29.55,NW,308,2.0,5.0,74,0.00,,---,0.01,VWS V14.01,2013-03-04 03:30:00,
2013-03-03 22:31:00,35.0,27.6,29.55,NNW,332,6.0,6.0,74,0.00,,---,0.01,VWS V14.01,2013-03-04 03:31:00,
2013-03-03 22:35:00,34.4,27.0,29.55,North,5,1.0,4.0,74,0.00,,---,0.01,VWS V14.01,2013-03-04 03:35:00,
2013-03-03 22:36:00,34.8,27.4,29.55,North,360,0.0,3.0,74,0.00,,---,0.01,VWS V14.01,2013-03-04 03:36:00,
2013-03-03 22:40:00,34.4,27.0,29.55,WSW,257,2.0,7.0,74,0.00,,---,0.01,VWS V14.01,2013-03-04 03:40:00,
2013-03-03 22:41:00,34.7,27.3,29.55,NNW,345,3.0,6.0,74,0.00,,---,0.01,VWS V14.01,2013-03-04 03:41:00,
2013-03-03 22:45:00,34.4,27.3,29.54,WNW,302,0.0,12.0,75,0.00,,---,0.01,VWS V14.01,2013-03-04 03:45:00,
2013-03-03 22:46:00,34.6,26.9,29.55,NNE,13,3.0,11.0,73,0.00,,---,0.01,VWS V14.01,2013-03-04 03:46:00,
2013-03-03 22:50:00,34.4,27.6,29.55,West,277,1.0,7.0,76,0.00,,---,0.01,VWS V14.01,2013-03-04 03:50:00,
2013-03-03 22:51:00,34.6,27.2,29.55,NW,309,2.0,7.0,74,0.00,,---,0.01,VWS V14.01,2013-03-04 03:51:00,
2013-03-03 22:55:00,34.4,28.0,29.55,NW,326,3.0,6.0,77,0.00,,---,0.01,VWS V14.01,2013-03-04 03:55:00,
2013-03-03 22:56:00,34.6,26.9,29.55,NNE,14,7.0,7.0,73,0.00,,---,0.01,VWS V14.01,2013-03-04 03:56:00,
2013-03-03 23:00:00,34.2,27.4,29.55,North,355,2.0,12.0,76,0.00,,---,0.00,VWS V14.01,2013-03-04 04:00:00,
2013-03-03 23:01:00,34.6,26.9,29.55,NW,314,2.0,11.0,73,0.00,,---,0.01,VWS V14.01,2013-03-04 04:01:00,
2013-03-03 23:05:00,34.1,27.7,29.55,SW,215,2.0,5.0,77,0.00,,---,0.00,VWS V14.01,2013-03-04 04:05:00,
2013-03-03 23:06:00,34.6,26.9,29.55,North,360,1.0,11.0,73,0.00,,---,0.01,VWS V14.01,2013-03-04 04:06:00,
2013-03-03 23:10:00,33.9,27.1,29.55,WNW,282,2.0,11.0,76,0.00,,---,0.00,VWS V14.01,2013-03-04 04:10:00,
2013-03-03 23:11:00,34.6,26.9,29.55,NW,326,0.0,13.0,73,0.00,,---,0.01,VWS V14.01,2013-03-04 04:11:00,
2013-03-03 23:15:00,33.9,26.8,29.55,WSW,258,5.0,10.0,75,0.00,,---,0.00,VWS V14.01,2013-03-04 04:15:00,
2013-03-03 23:16:00,34.6,26.9,29.55,WNW,290,8.0,9.0,73,0.00,,---,0.01,VWS V14.01,2013-03-04 04:16:00,
2013-03-03 23:20:00,33.8,26.7,29.54,WSW,254,9.0,12.0,75,0.00,,---,0.00,VWS V14.01,2013-03-04 04:20:00,
2013-03-03 23:21:00,34.5,27.1,29.55,NW,311,2.0,4.0,74,0.00,,---,0.01,VWS V14.01,2013-03-04 04:21:00,
2013-03-03 23:25:00,33.8,26.7,29.54,WNW,298,0.0,11.0,75,0.00,,---,0.00,VWS V14.01,2013-03-04 04:25:00,
2013-03-03 23:26:00,34.5,26.8,29.55,West,266,5.0,5.0,73,0.00,,---,0.01,VWS V14.01,2013-03-04 04:26:00,
2013-03-03 23:30:00,33.7,26.6,29.54,West,269,3.0,5.0,75,0.00,,---,0.00,VWS V14.01,2013-03-04 04:30:00,
2013-03-03 23:31:00,34.4,27.0,29.55,WSW,252,3.0,3.0,74,0.00,,---,0.01,VWS V14.01,2013-03-04 04:31:00,
2013-03-03 23:35:00,33.6,26.5,29.55,North,360,4.0,11.0,75,0.00,,---,0.00,VWS V14.01,2013-03-04 04:35:00,
2013-03-03 23:36:00,34.4,27.3,29.55,NNW,338,0.0,7.0,75,0.00,,---,0.01,VWS V14.01,2013-03-04 04:36:00,
2013-03-03 23:40:00,33.6,26.5,29.55,WNW,300,2.0,7.0,75,0.00,,---,0.00,VWS V14.01,2013-03-04 04:40:00,
2013-03-03 23:41:00,34.4,27.3,29.55,NW,319,6.0,12.0,75,0.00,,---,0.01,VWS V14.01,2013-03-04 04:41:00,
2013-03-03 23:45:00,33.5,26.4,29.54,West,273,4.0,11.0,75,0.00,,---,0.00,VWS V14.01,2013-03-04 04:45:00,
2013-03-03 23:47:00,34.4,27.3,29.54,WSW,257,0.0,7.0,75,0.00,,---,0.01,VWS V14.01,2013-03-04 04:47:00,
2013-03-03 23:50:00,33.6,26.5,29.55,WSW,258,7.0,13.0,75,0.00,,---,0.00,VWS V14.01,2013-03-04 04:50:00,
2013-03-03 23:52:00,34.4,28.0,29.55,WNW,298,0.0,3.0,77,0.00,,---,0.01,VWS V14.01,2013-03-04 04:52:00,
2013-03-03 23:55:00,33.5,26.4,29.55,North,11,4.0,15.0,75,0.00,,---,0.00,VWS V14.01,2013-03-04 04:55:00,
2013-03-03 23:57:00,34.3,27.9,29.55,WNW,286,3.0,12.0,77,0.00,,---,0.01,VWS V14.01,2013-03-04 04:57:00,